NCAR-RAP Real-Time Weather Data

Output produced by METARs form (06 May 2021  17:02 UTC)
found at http://weather.rap.ucar.edu/surface/
 
KHLG 061653Z AUTO 30006KT 10SM 12/02 A3011 RMK AO2 SLPNO T01170017
KHLG 061553Z VRB/03KT 10SM SCT035 11/02 A0314
KHLG 061453Z CLMKT 10SM SCT045 09/03 A0315
KHLG 061253Z CLMKT 3SM FG CLR 07/05 A0315
KHLG 061153Z 16003KT 1/4SM BR CLR 03/03 A0315
KHLG 061053Z 16003KT 6 BRSM CLR 01/01 A3013
KHLG 060153Z 32007KT 10SM BKN048 07/02 A3010